FIMP/MRU METAR and TAF weather

Enter ICAO airport designator
Station Type Date Time Source
FIMP METAR 2018/01/19 23:00 UTC NOAA

FIMP 192300Z 00000KT 9999 FEW017 25/23 Q1009


Station Type Date Time Source
FIMP Decoded METAR 2018/01/19 23:00 UTC NOAA

Plaisance Mauritius , Mauritius (FIMP) 20-26S 057-40E 57M
Jan 19, 2018 - 06:00 PM EST / 2018.01.19 2300 UTC
Wind: Calm:0
Visibility: greater than 7 mile(s):0
Sky conditions: mostly clear
Temperature: 77 F (25 C)
Dew Point: 73 F (23 C)
Relative Humidity: 88%
Pressure (altimeter): 29.80 in. Hg (1009 hPa)
ob: FIMP 192300Z 00000KT 9999 FEW017 25/23 Q1009
cycle: 23

Station Type Date Time Source
FIMP TAF 2018/01/19 18:27 UTC NOAA

TAF FIMP 191710Z 1918/2100 VRB05KT 9999 SCT018
TEMPO 2013/2015 5000 SHRA FEW010 BKN013 BKN045


Example: see airport list